Time;durP1;ratioP1;P1;durP2;ratioP2;P2;SDS_P1;SDS_P2;PMS_P1;PMS_P2;Temp;Humidity;BMP_temperature;BMP_pressure;BME280_temperature;BME280_humidity;BME280_pressure;Samples;Min_cycle;Max_cycle;Signal;HPM_P1;HPM_P2
2023/11/02 00:00:35;;;;;;;16.70;7.90;;;;;;;11.99;85.11;98750.42;78561;1292;3026855;-69
2023/11/02 00:03:04;;;;;;;15.00;8.00;;;;;;;12.34;83.24;98749.17;78561;1293;3053350;-72
2023/11/02 00:05:42;;;;;;;25.90;11.40;;;;;;;12.01;83.50;98751.39;79634;1297;3013214;-71
2023/11/02 00:08:10;;;;;;;22.40;12.50;;;;;;;11.97;83.62;98750.77;75950;1296;3406273;-68
2023/11/02 00:10:38;;;;;;;27.60;13.70;;;;;;;11.72;84.59;98754.05;79716;1294;3012626;-69
2023/11/02 00:13:05;;;;;;;28.30;14.20;;;;;;;11.58;85.26;98753.40;79738;1292;3013342;-69
2023/11/02 00:15:32;;;;;;;22.90;9.90;;;;;;;11.27;87.16;98757.14;78458;1294;3050228;-69
2023/11/02 00:17:59;;;;;;;24.20;9.80;;;;;;;11.79;86.20;98750.63;79695;1295;3013563;-70
2023/11/02 00:20:31;;;;;;;24.60;10.80;;;;;;;12.17;83.92;98735.91;79807;1293;3011712;-71
2023/11/02 00:22:59;;;;;;;24.20;10.40;;;;;;;12.08;83.78;98747.30;78603;1292;3052433;-71
2023/11/02 00:25:52;;;;;;;29.70;12.50;;;;;;;11.83;84.06;98751.13;79841;1292;3012856;-70
2023/11/02 00:28:20;;;;;;;29.40;12.50;;;;;;;11.73;84.30;98755.04;78574;1292;3057671;-69
2023/11/02 00:30:48;;;;;;;29.40;13.00;;;;;;;11.53;85.26;98759.21;79802;1294;3012914;-70
2023/11/02 00:33:15;;;;;;;21.90;8.50;;;;;;;11.18;87.56;98757.83;79896;1295;3011679;-70
2023/11/02 00:35:44;;;;;;;21.40;9.70;;;;;;;11.58;86.62;98760.58;78666;1297;3053383;-70
2023/11/02 00:38:12;;;;;;;21.90;8.60;;;;;;;12.31;84.37;98755.71;79912;1294;3013003;-69
2023/11/02 00:40:41;;;;;;;21.80;10.40;;;;;;;12.05;83.31;98756.67;79024;1294;3011636;-71
2023/11/02 00:43:09;;;;;;;25.70;11.00;;;;;;;11.92;84.21;98757.70;79716;1294;3013803;-71
2023/11/02 00:45:41;;;;;;;24.40;12.70;;;;;;;11.71;84.82;98763.28;79774;1295;3011841;-71
2023/11/02 00:48:22;;;;;;;30.70;12.50;;;;;;;11.48;85.65;98765.34;78604;1292;3052651;-72
2023/11/02 00:51:11;;;;;;;21.30;9.80;;;;;;;11.27;86.06;98774.96;78575;1292;3052025;-68
2023/11/02 00:53:44;;;;;;;18.90;8.40;;;;;;;11.26;86.91;98769.85;78507;1297;3051891;-70
2023/11/02 00:56:12;;;;;;;13.50;7.00;;;;;;;11.63;85.61;98774.42;79778;1297;3011913;-69
2023/11/02 00:58:49;;;;;;;25.50;8.40;;;;;;;11.79;84.87;98776.17;78476;1292;3069284;-67
2023/11/02 01:01:18;;;;;;;20.10;9.80;;;;;;;11.72;84.92;98784.44;78528;1296;3052842;-71
2023/11/02 01:03:47;;;;;;;25.80;10.10;;;;;;;11.50;85.68;98779.11;79989;1292;3013162;-71
2023/11/02 01:06:19;;;;;;;21.10;10.20;;;;;;;11.31;86.28;98781.37;78616;1292;3026351;-71
2023/11/02 01:08:51;;;;;;;15.90;10.50;;;;;;;11.21;86.81;98786.64;79905;1291;3013446;-68
2023/11/02 01:11:20;;;;;;;;;;;;;;;11.00;88.25;98783.62;78746;1295;3050921;-69
2023/11/02 01:13:47;;;;;;;15.60;9.20;;;;;;;11.37;87.21;98783.90;80108;1297;3014826;-69
2023/11/02 01:16:14;;;;;;;23.20;9.10;;;;;;;11.72;85.68;98795.69;80186;1292;3012959;-68
2023/11/02 01:18:44;;;;;;;14.40;9.80;;;;;;;11.62;85.71;98798.20;79004;1300;3053099;-70
2023/11/02 01:21:10;;;;;;;20.70;9.50;;;;;;;11.69;84.24;98799.63;80101;1295;3013109;-68
2023/11/02 01:23:41;;;;;;;12.70;8.40;;;;;;;11.27;85.70;98803.52;79102;1294;3011780;-69
2023/11/02 01:26:46;;;;;;;16.10;7.90;;;;;;;11.13;86.16;98804.75;79738;1297;3012837;-66
2023/11/02 01:31:01;;;;;;;12.00;6.20;;;;;;;11.47;86.25;98812.09;80572;1295;3012984;-69
2023/11/02 01:33:41;;;;;;;10.10;5.10;;;;;;;11.72;85.00;98821.80;78258;1294;3053102;-70
2023/11/02 01:36:08;;;;;;;6.60;4.30;;;;;;;11.47;85.17;98818.03;78326;1296;3049820;-69
2023/11/02 01:38:35;;;;;;;5.30;3.70;;;;;;;11.24;86.24;98822.92;79475;1300;3012913;-71
2023/11/02 01:41:03;;;;;;;6.70;3.50;;;;;;;11.10;86.39;98826.94;79583;1298;3011590;-71
2023/11/02 01:43:47;;;;;;;5.40;3.00;;;;;;;11.00;87.36;98831.48;75509;1297;3248648;-71
2023/11/02 01:46:38;;;;;;;5.80;2.60;;;;;;;11.29;87.48;98832.23;78506;1294;3057693;-73
2023/11/02 01:49:09;;;;;;;7.10;2.50;;;;;;;11.66;85.21;98836.52;78642;1296;3049283;-69
2023/11/02 01:51:50;;;;;;;5.00;3.00;;;;;;;11.31;86.31;98836.42;79752;1299;3013091;-70
2023/11/02 01:54:27;;;;;;;4.00;2.70;;;;;;;11.20;86.71;98841.95;78574;1293;3050202;-70
2023/11/02 01:57:06;;;;;;;3.40;2.70;;;;;;;10.95;87.45;98844.31;78582;1295;3052619;-71
2023/11/02 02:00:04;;;;;;;3.70;2.30;;;;;;;10.86;88.70;98839.48;78557;1293;3052681;-68
2023/11/02 02:02:57;;;;;;;6.80;2.70;;;;;;;11.52;87.34;98845.05;78536;1297;3068408;-69
2023/11/02 02:05:30;;;;;;;5.30;2.70;;;;;;;11.82;85.48;98844.98;78537;1294;3049733;-70
2023/11/02 02:08:47;;;;;;;5.10;2.70;;;;;;;11.56;85.69;98835.47;79800;1293;3011398;-69
2023/11/02 02:11:29;;;;;;;7.70;2.60;;;;;;;11.18;87.04;98840.90;78490;1297;3049779;-70
2023/11/02 02:14:00;;;;;;;5.50;3.20;;;;;;;10.97;88.35;98845.58;78540;1294;3052993;-71
2023/11/02 02:16:46;;;;;;;6.30;2.80;;;;;;;10.99;88.11;98853.46;79731;1297;3011521;-71
2023/11/02 02:19:45;;;;;;;6.50;3.40;;;;;;;11.37;88.17;98849.70;78570;1297;3051352;-69
2023/11/02 02:22:35;;;;;;;9.30;3.10;;;;;;;11.53;86.69;98858.10;78488;1298;3052546;-69
2023/11/02 02:25:18;;;;;;;9.60;3.60;;;;;;;11.36;87.75;98858.86;78691;1295;3069129;-69
2023/11/02 02:28:08;;;;;;;3.80;3.20;;;;;;;11.24;87.60;98858.88;78478;1294;3050243;-71
2023/11/02 02:30:54;;;;;;;8.40;3.60;;;;;;;11.07;88.13;98859.56;78484;1293;3058142;-71
2023/11/02 02:33:41;;;;;;;4.80;2.60;;;;;;;10.89;90.35;98864.48;78561;1298;3049875;-71
2023/11/02 02:36:13;;;;;;;6.20;3.10;;;;;;;11.93;87.82;98864.08;78545;1294;3053532;-70
2023/11/02 02:38:43;;;;;;;7.90;3.50;;;;;;;12.04;85.33;98865.54;79749;1295;3011856;-72
2023/11/02 02:41:14;;;;;;;5.00;3.10;;;;;;;11.80;86.16;98872.97;78547;1294;3051719;-69
2023/11/02 02:43:41;;;;;;;5.10;3.70;;;;;;;11.65;87.03;98873.58;79781;1297;3011607;-68
2023/11/02 02:46:10;;;;;;;6.60;3.40;;;;;;;11.41;87.70;98870.62;79223;1298;3011686;-70
2023/11/02 02:48:37;;;;;;;5.10;3.60;;;;;;;11.30;87.91;98871.20;79721;1294;3013641;-68
2023/11/02 02:51:04;;;;;;;4.80;3.40;;;;;;;11.54;88.54;98870.51;79809;1293;3013311;-69
2023/11/02 02:53:32;;;;;;;9.70;3.80;;;;;;;12.03;86.43;98869.20;78528;1297;3054313;-70
2023/11/02 02:56:05;;;;;;;8.50;3.80;;;;;;;11.75;86.63;98869.81;79755;1293;3013202;-71
2023/11/02 02:59:03;;;;;;;5.90;4.30;;;;;;;11.62;86.47;98876.44;78525;1295;3052855;-70
2023/11/02 03:01:41;;;;;;;6.60;4.70;;;;;;;11.22;88.07;98872.70;78552;1294;3069135;-70
2023/11/02 03:04:13;;;;;;;5.50;3.00;;;;;;;10.99;89.46;98875.01;78459;1292;3052635;-69
2023/11/02 03:06:43;;;;;;;5.40;4.00;;;;;;;11.55;88.92;98876.77;79759;1294;3012802;-71
2023/11/02 03:09:16;;;;;;;7.90;4.50;;;;;;;12.04;86.35;98878.74;78522;1295;3049410;-71
2023/11/02 03:11:44;;;;;;;6.50;4.10;;;;;;;11.82;86.40;98876.34;79863;1293;3013145;-71
2023/11/02 03:14:13;;;;;;;6.60;4.70;;;;;;;11.41;87.43;98875.16;78478;1295;3049594;-70
2023/11/02 03:16:41;;;;;;;7.30;5.70;;;;;;;11.26;87.59;98882.89;79923;1298;3013282;-72
2023/11/02 03:19:14;;;;;;;6.90;4.90;;;;;;;11.03;88.93;98881.19;79220;1294;3013777;-72
2023/11/02 03:21:41;;;;;;;7.30;4.90;;;;;;;11.46;88.63;98883.38;79716;1298;3011714;-72
2023/11/02 03:24:42;;;;;;;4.80;3.80;;;;;;;11.54;87.76;98885.60;78429;1294;3026014;-71
2023/11/02 03:27:11;;;;;;;7.30;4.80;;;;;;;11.44;87.10;98882.64;78295;1294;3057349;-72
2023/11/02 03:29:50;;;;;;;8.40;5.30;;;;;;;11.10;88.95;98880.00;79984;1294;3014155;-69
2023/11/02 03:32:20;;;;;;;9.00;7.00;;;;;;;10.90;89.39;98883.20;78524;1295;3050639;-68
2023/11/02 03:34:55;;;;;;;7.30;4.70;;;;;;;10.52;92.15;98894.45;79845;1297;3011730;-69
2023/11/02 03:37:31;;;;;;;8.20;5.60;;;;;;;11.11;91.16;98892.95;78507;1297;3053224;-69
2023/11/02 03:40:09;;;;;;;10.40;5.40;;;;;;;11.33;89.00;98896.95;78532;1293;3068969;-70
2023/11/02 03:43:27;;;;;;;9.60;6.60;;;;;;;11.18;89.08;98901.31;78468;1295;3050828;-70
2023/11/02 03:46:07;;;;;;;7.80;7.00;;;;;;;11.13;88.24;98904.33;78415;1294;3056637;-70
2023/11/02 03:48:51;;;;;;;12.20;7.80;;;;;;;10.79;89.13;98904.61;78617;1293;3049217;-70
2023/11/02 03:51:37;;;;;;;10.20;6.30;;;;;;;10.69;89.51;98899.89;78371;1294;3053506;-70
2023/11/02 03:54:18;;;;;;;10.00;6.90;;;;;;;10.98;90.20;98898.05;78519;1297;3051660;-71
2023/11/02 03:57:14;;;;;;;6.90;5.50;;;;;;;11.26;87.93;98899.56;78449;1297;3052585;-70
2023/11/02 04:00:17;;;;;;;8.80;6.40;;;;;;;11.01;88.52;98896.40;78503;1297;3051912;-70
2023/11/02 04:02:47;;;;;;;17.60;9.10;;;;;;;10.57;89.85;98898.64;78423;1295;3068512;-70
2023/11/02 04:05:22;;;;;;;13.20;10.10;;;;;;;10.40;90.84;98905.23;79811;1294;3011356;-69
2023/11/02 04:08:15;;;;;;;11.50;7.50;;;;;;;10.22;91.60;98903.25;78461;1294;3056523;-70
2023/11/02 04:10:57;;;;;;;15.50;8.30;;;;;;;10.73;90.01;98898.04;78503;1294;3047798;-69
2023/11/02 04:13:45;;;;;;;15.10;8.10;;;;;;;10.76;88.84;98890.66;78407;1297;3053320;-70
2023/11/02 04:16:12;;;;;;;12.00;8.40;;;;;;;10.66;88.74;98892.38;78458;1297;3051286;-71
2023/11/02 04:18:39;;;;;;;9.30;8.00;;;;;;;10.32;89.97;98897.54;79799;1297;3013336;-71
2023/11/02 04:21:07;;;;;;;14.20;10.00;;;;;;;10.08;91.06;98901.77;79805;1294;3013608;-70
2023/11/02 04:23:35;;;;;;;9.50;7.00;;;;;;;10.07;91.18;98908.15;78523;1297;3050203;-70
2023/11/02 04:26:02;;;;;;;9.90;7.60;;;;;;;10.59;90.30;98913.69;79783;1294;3013230;-70
2023/11/02 04:28:30;;;;;;;14.50;8.80;;;;;;;11.05;87.09;98922.10;79793;1295;3012118;-72
2023/11/02 04:30:58;;;;;;;12.20;8.90;;;;;;;10.94;86.67;98922.31;78496;1297;3049941;-72
2023/11/02 04:33:25;;;;;;;13.80;9.20;;;;;;;10.57;87.42;98925.61;79752;1297;3019189;-71
2023/11/02 04:35:51;;;;;;;13.00;10.40;;;;;;;10.45;87.77;98927.46;79774;1294;3011533;-72
2023/11/02 04:38:19;;;;;;;13.60;10.30;;;;;;;10.43;87.21;98930.77;78455;1293;3026302;-71
2023/11/02 04:40:46;;;;;;;11.10;7.40;;;;;;;10.10;88.86;98931.52;79777;1301;3018542;-71
2023/11/02 04:43:12;;;;;;;11.50;7.20;;;;;;;10.53;88.36;98937.23;79709;1297;3011982;-71
2023/11/02 04:45:40;;;;;;;10.50;6.80;;;;;;;10.68;87.15;98945.52;78622;1294;3026365;-71
2023/11/02 04:48:07;;;;;;;10.40;6.50;;;;;;;10.87;86.18;98951.73;79783;1297;3018575;-71
2023/11/02 04:50:33;;;;;;;10.60;7.30;;;;;;;10.64;86.14;98954.21;79769;1295;3012803;-70
2023/11/02 04:53:01;;;;;;;13.90;7.40;;;;;;;10.35;86.64;98954.22;78469;1294;3025843;-71
2023/11/02 04:55:27;;;;;;;10.40;6.70;;;;;;;10.15;87.12;98953.30;79647;1297;3013551;-74
2023/11/02 04:57:54;;;;;;;14.50;6.50;;;;;;;10.09;88.34;98955.74;79821;1297;3011638;-73
2023/11/02 05:00:22;;;;;;;10.50;6.50;;;;;;;10.59;86.74;98959.77;78552;1294;3026768;-72
2023/11/02 05:02:48;;;;;;;15.90;7.60;;;;;;;10.56;85.98;98958.55;79940;1297;3013836;-72
2023/11/02 05:05:14;;;;;;;13.80;8.20;;;;;;;10.27;86.51;98960.34;79872;1294;3011644;-72
2023/11/02 05:07:42;;;;;;;15.80;10.20;;;;;;;10.24;86.51;98966.17;78566;1297;3026912;-71
2023/11/02 05:10:09;;;;;;;17.90;10.20;;;;;;;10.14;86.44;98971.17;79887;1294;3013057;-71
2023/11/02 05:12:35;;;;;;;10.50;6.30;;;;;;;10.05;86.69;98973.72;79729;1297;3011555;-70
2023/11/02 05:15:04;;;;;;;12.00;6.40;;;;;;;10.59;86.12;98975.33;78688;1295;3025772;-72
2023/11/02 05:17:31;;;;;;;11.00;5.80;;;;;;;11.07;84.28;98981.88;79792;1294;3012851;-72
2023/11/02 05:19:57;;;;;;;12.30;6.80;;;;;;;11.00;83.57;98988.16;79792;1297;3011925;-72
2023/11/02 05:22:26;;;;;;;22.70;7.50;;;;;;;10.67;83.75;98992.85;78393;1294;3026118;-70
2023/11/02 05:24:52;;;;;;;10.80;7.30;;;;;;;10.67;84.08;98996.21;79730;1297;3013241;-70
2023/11/02 05:27:19;;;;;;;13.50;7.70;;;;;;;10.29;85.10;99000.14;80029;1297;3012599;-71
2023/11/02 05:29:48;;;;;;;10.40;5.30;;;;;;;10.10;86.51;99005.25;78454;1297;3026227;-73
2023/11/02 05:32:17;;;;;;;12.90;4.90;;;;;;;10.96;84.71;99010.80;79728;1297;3012768;-73
2023/11/02 05:34:46;;;;;;;7.20;5.40;;;;;;;10.78;84.77;99012.61;79212;1293;3012038;-72
2023/11/02 05:37:14;;;;;;;8.10;4.90;;;;;;;10.75;84.96;99018.81;79798;1294;3013457;-72
2023/11/02 05:39:40;;;;;;;9.20;4.80;;;;;;;10.57;84.92;99019.14;79761;1293;3011827;-71
2023/11/02 05:42:08;;;;;;;9.00;5.00;;;;;;;10.46;85.18;99025.14;78405;1297;3049913;-74
2023/11/02 05:44:34;;;;;;;10.00;5.40;;;;;;;10.04;87.29;99026.80;79694;1297;3013677;-70
2023/11/02 05:47:01;;;;;;;5.60;4.10;;;;;;;9.98;88.13;99031.05;79723;1297;3011531;-73
2023/11/02 05:49:30;;;;;;;8.30;4.30;;;;;;;10.35;86.64;99034.19;78401;1297;3053087;-71
2023/11/02 05:51:56;;;;;;;10.10;4.90;;;;;;;10.46;86.27;99033.70;79706;1297;3013406;-71
2023/11/02 05:54:23;;;;;;;8.10;5.10;;;;;;;10.58;86.11;99035.85;79778;1294;3011227;-71
2023/11/02 05:56:50;;;;;;;8.10;4.90;;;;;;;10.34;86.54;99044.10;78444;1297;3026732;-73
2023/11/02 05:59:17;;;;;;;8.50;4.80;;;;;;;10.22;86.88;99051.88;79756;1297;3011528;-72
2023/11/02 06:01:44;;;;;;;6.80;3.70;;;;;;;9.98;87.48;99046.05;79626;1297;3011612;-74
2023/11/02 06:04:12;;;;;;;4.70;3.60;;;;;;;10.29;87.14;99042.63;78438;1294;3025841;-74
2023/11/02 06:06:39;;;;;;;5.90;4.10;;;;;;;10.89;85.32;99046.20;79837;1294;3019608;-72
2023/11/02 06:09:05;;;;;;;8.80;4.60;;;;;;;10.96;83.93;99047.50;79494;1295;3011437;-74
2023/11/02 06:11:33;;;;;;;9.70;4.70;;;;;;;10.64;84.92;99044.73;78497;1294;3025987;-72
2023/11/02 06:14:00;;;;;;;8.60;5.40;;;;;;;10.62;84.50;99052.56;79573;1300;3013316;-75
2023/11/02 06:16:27;;;;;;;15.10;5.80;;;;;;;10.46;84.94;99053.99;79630;1294;3011638;-73
2023/11/02 06:18:55;;;;;;;9.30;4.20;;;;;;;10.30;85.70;99053.42;78515;1294;3026434;-73
2023/11/02 06:21:21;;;;;;;6.40;4.50;;;;;;;10.91;85.20;99063.79;79863;1297;3013743;-70
2023/11/02 06:23:48;;;;;;;5.30;3.80;;;;;;;11.14;83.21;99059.72;79886;1293;3013241;-71
2023/11/02 06:26:18;;;;;;;8.40;4.90;;;;;;;11.05;83.51;99071.06;78537;1294;3026574;-71
2023/11/02 06:28:46;;;;;;;8.70;5.00;;;;;;;10.96;83.37;99074.08;79836;1297;3014169;-69
2023/11/02 06:31:15;;;;;;;8.10;5.70;;;;;;;10.69;84.31;99076.77;79297;1294;3012880;-71
2023/11/02 06:33:41;;;;;;;10.20;6.50;;;;;;;10.51;84.53;99075.73;79731;1294;3012645;-72
2023/11/02 06:36:08;;;;;;;7.10;4.90;;;;;;;10.28;86.49;99069.49;79743;1294;3013210;-72
2023/11/02 06:38:36;;;;;;;16.00;5.60;;;;;;;10.81;85.40;99077.89;78585;1294;3027392;-70
2023/11/02 06:41:03;;;;;;;12.30;6.40;;;;;;;11.19;83.27;99080.80;79791;1297;3018940;-71
2023/11/02 06:43:31;;;;;;;9.20;6.70;;;;;;;10.94;83.25;99090.55;80081;1297;3011555;-71
2023/11/02 06:45:58;;;;;;;11.30;7.30;;;;;;;10.68;84.00;99085.98;78687;1298;3049195;-72
2023/11/02 06:48:25;;;;;;;14.90;7.70;;;;;;;10.42;84.75;99081.77;80013;1294;3019068;-70
2023/11/02 06:50:52;;;;;;;10.20;6.00;;;;;;;10.28;85.28;99083.88;79882;1297;3013096;-68
2023/11/02 06:53:19;;;;;;;15.60;7.80;;;;;;;10.56;85.84;99080.61;78583;1297;3026236;-71
2023/11/02 06:55:47;;;;;;;8.90;6.30;;;;;;;10.77;84.56;99074.85;79752;1294;3018636;-70
2023/11/02 06:58:13;;;;;;;13.50;7.30;;;;;;;10.88;84.15;99071.88;79858;1294;3011987;-70
2023/11/02 07:00:41;;;;;;;13.30;6.90;;;;;;;10.71;84.64;99066.36;78510;1297;3025794;-69
2023/11/02 07:03:10;;;;;;;11.00;7.30;;;;;;;10.65;85.22;99064.98;80014;1297;3013526;-69
2023/11/02 07:05:36;;;;;;;12.20;8.50;;;;;;;10.57;85.21;99064.33;79753;1294;3013226;-71
2023/11/02 07:08:04;;;;;;;10.20;6.50;;;;;;;10.59;85.47;99060.45;78560;1294;3051575;-71
2023/11/02 07:10:31;;;;;;;12.90;7.60;;;;;;;11.25;83.98;99067.01;79795;1297;3019570;-71
2023/11/02 07:12:57;;;;;;;14.60;8.70;;;;;;;11.98;81.17;99069.44;79683;1298;3011521;-71
2023/11/02 07:15:25;;;;;;;10.70;8.00;;;;;;;11.86;80.13;99071.36;78800;1294;3026648;-71
2023/11/02 07:17:52;;;;;;;11.10;7.30;;;;;;;11.80;80.04;99069.15;79727;1297;3012708;-73
2023/11/02 07:20:18;;;;;;;11.90;8.10;;;;;;;11.60;80.13;99070.86;79710;1297;3011856;-72
2023/11/02 07:22:46;;;;;;;12.60;9.30;;;;;;;11.37;81.08;99074.77;78597;1293;3027161;-73
2023/11/02 07:25:12;;;;;;;13.60;9.20;;;;;;;11.18;81.70;99075.05;79788;1297;3013523;-74
2023/11/02 07:27:39;;;;;;;11.40;6.40;;;;;;;11.15;81.88;99078.83;79757;1295;3012104;-74
2023/11/02 07:30:07;;;;;;;12.10;7.30;;;;;;;11.80;81.09;99076.02;78460;1294;3026254;-73
2023/11/02 07:32:34;;;;;;;10.10;6.70;;;;;;;12.12;78.74;99072.42;79721;1297;3012863;-72
2023/11/02 07:35:00;;;;;;;14.50;7.20;;;;;;;12.20;77.83;99076.50;79852;1295;3011504;-73
2023/11/02 07:37:28;;;;;;;11.10;7.60;;;;;;;12.19;77.87;99078.11;78606;1297;3051942;-73
2023/11/02 07:39:54;;;;;;;17.40;8.40;;;;;;;12.10;77.18;99082.46;79772;1297;3013211;-74
2023/11/02 07:42:21;;;;;;;17.50;10.30;;;;;;;11.99;76.78;99087.25;79967;1295;3011722;-72
2023/11/02 07:44:49;;;;;;;22.00;10.60;;;;;;;11.90;77.31;99098.81;78610;1294;3027101;-71
2023/11/02 07:47:16;;;;;;;19.30;10.80;;;;;;;11.65;77.22;99097.10;79845;1297;3012854;-69
2023/11/02 07:49:42;;;;;;;21.30;11.80;;;;;;;11.54;77.56;99105.17;79878;1295;3012119;-71
2023/11/02 07:52:10;;;;;;;13.50;7.10;;;;;;;11.55;78.15;99105.81;78727;1294;3027077;-71
2023/11/02 07:54:37;;;;;;;13.40;7.30;;;;;;;12.14;77.45;99106.02;79859;1295;3019201;-69
2023/11/02 07:57:07;;;;;;;12.40;6.80;;;;;;;12.62;75.30;99103.06;79862;1295;3011757;-69
2023/11/02 07:59:38;;;;;;;13.30;8.20;;;;;;;13.00;74.23;99104.75;78532;1297;3049109;-65
2023/11/02 08:02:05;;;;;;;15.20;9.50;;;;;;;12.92;73.81;99103.95;79587;1297;3011542;-67
2023/11/02 08:04:34;;;;;;;23.30;11.10;;;;;;;12.84;73.22;99102.11;79250;1294;3013136;-71
2023/11/02 08:07:01;;;;;;;24.90;14.30;;;;;;;12.80;73.29;99108.54;79882;1297;3013607;-72
2023/11/02 08:09:32;;;;;;;31.90;15.90;;;;;;;12.74;72.87;99112.16;79372;1294;3011837;-71
2023/11/02 08:11:58;;;;;;;23.30;12.30;;;;;;;12.79;72.50;99113.71;79678;1294;3013046;-71
2023/11/02 08:14:25;;;;;;;22.10;10.70;;;;;;;12.79;71.96;99116.17;80075;1294;3011866;-67
2023/11/02 08:16:53;;;;;;;20.50;10.70;;;;;;;12.64;72.56;99112.23;78707;1297;3026095;-69
2023/11/02 08:19:20;;;;;;;18.10;10.40;;;;;;;12.60;72.21;99122.52;79870;1297;3012831;-69
2023/11/02 08:21:46;;;;;;;21.30;9.40;;;;;;;12.38;71.87;99128.67;79761;1297;3012622;-68
2023/11/02 08:24:14;;;;;;;13.10;7.30;;;;;;;12.40;72.31;99122.55;78505;1295;3026177;-65
2023/11/02 08:26:41;;;;;;;12.70;6.60;;;;;;;12.35;72.24;99118.55;79776;1298;3012954;-67
2023/11/02 08:29:07;;;;;;;13.90;6.80;;;;;;;12.41;72.33;99115.50;79838;1297;3011453;-72
2023/11/02 08:31:35;;;;;;;15.70;6.70;;;;;;;12.58;71.45;99118.27;78615;1301;3028252;-71
2023/11/02 08:34:02;;;;;;;10.40;5.80;;;;;;;12.56;71.10;99118.95;79821;1306;3013193;-67
2023/11/02 08:36:31;;;;;;;12.40;6.50;;;;;;;12.48;70.86;99122.55;79857;1294;3011666;-66
2023/11/02 08:38:59;;;;;;;13.30;6.60;;;;;;;12.48;70.73;99119.38;78513;1293;3051181;-69
2023/11/02 08:41:28;;;;;;;11.40;6.90;;;;;;;12.62;71.04;99112.36;79768;1297;3012813;-67
2023/11/02 08:43:56;;;;;;;9.50;6.60;;;;;;;12.68;71.45;99107.55;79853;1297;3013591;-70
2023/11/02 08:46:25;;;;;;;12.20;6.90;;;;;;;12.84;71.07;99112.48;78562;1295;3048998;-69
2023/11/02 08:48:53;;;;;;;12.20;6.70;;;;;;;12.83;70.62;99107.95;79854;1297;3012971;-73
2023/11/02 08:51:20;;;;;;;11.60;7.50;;;;;;;13.00;69.97;99098.02;79678;1295;3011566;-68
2023/11/02 08:53:50;;;;;;;11.60;6.80;;;;;;;13.06;69.19;99102.17;78492;1294;3050819;-70
2023/11/02 08:56:17;;;;;;;13.00;6.20;;;;;;;13.02;68.75;99103.23;79913;1297;3013595;-71
2023/11/02 08:58:46;;;;;;;14.00;6.10;;;;;;;13.12;67.96;99096.65;79893;1295;3011936;-71
2023/11/02 09:01:18;;;;;;;10.80;5.90;;;;;;;13.15;67.13;99102.02;78417;1298;3051141;-67
2023/11/02 09:03:50;;;;;;;18.50;7.70;;;;;;;13.21;66.30;99096.11;79647;1308;3014131;-69
2023/11/02 09:06:19;;;;;;;15.30;7.10;;;;;;;13.38;65.81;99099.36;78527;1297;3052629;-71
2023/11/02 09:08:46;;;;;;;22.20;8.30;;;;;;;13.43;65.08;99095.34;79839;1297;3013282;-71
2023/11/02 09:11:14;;;;;;;12.70;5.90;;;;;;;13.48;63.83;99103.52;80033;1295;3011526;-70
2023/11/02 09:13:42;;;;;;;14.00;6.10;;;;;;;13.31;63.13;99100.58;78602;1293;3048653;-67
2023/11/02 09:16:09;;;;;;;17.30;7.40;;;;;;;13.18;62.97;99096.18;79823;1294;3012790;-68
2023/11/02 09:18:40;;;;;;;12.50;4.90;;;;;;;13.10;62.03;99096.08;80123;1297;3011726;-71
2023/11/02 09:21:08;;;;;;;11.40;4.90;;;;;;;12.73;61.00;99096.94;79270;1297;3053868;-68
2023/11/02 09:23:34;;;;;;;10.30;5.20;;;;;;;12.79;61.00;99099.84;79688;1293;3012951;-70
2023/11/02 09:26:02;;;;;;;9.60;4.80;;;;;;;12.63;61.16;99098.73;79746;1295;3011247;-70
2023/11/02 09:28:30;;;;;;;14.90;4.50;;;;;;;12.60;60.93;99103.52;78561;1295;3049240;-69
2023/11/02 09:30:56;;;;;;;14.40;6.00;;;;;;;12.58;60.66;99104.73;79827;1297;3013435;-68
2023/11/02 09:33:22;;;;;;;13.50;7.10;;;;;;;12.44;60.80;99104.55;79796;1297;3011683;-71
2023/11/02 09:35:50;;;;;;;19.20;8.60;;;;;;;12.38;61.53;99102.67;78479;1307;3027558;-70
2023/11/02 09:38:19;;;;;;;24.50;9.00;;;;;;;12.29;61.86;99104.45;79671;1295;3012885;-71
2023/11/02 09:40:45;;;;;;;21.30;9.00;;;;;;;12.35;62.20;99110.64;79774;1296;3011731;-70
2023/11/02 09:43:13;;;;;;;20.90;8.40;;;;;;;12.43;62.47;99108.98;78514;1294;3049157;-70
2023/11/02 09:45:40;;;;;;;19.50;8.70;;;;;;;12.34;62.16;99115.45;79633;1295;3012854;-68
2023/11/02 09:48:07;;;;;;;20.10;8.90;;;;;;;12.24;62.39;99111.24;79638;1297;3011557;-70
2023/11/02 09:50:34;;;;;;;22.00;9.50;;;;;;;12.30;62.15;99107.19;78399;1297;3026499;-68
2023/11/02 09:53:01;;;;;;;21.30;9.70;;;;;;;12.32;62.10;99103.71;79716;1294;3013268;-71
2023/11/02 09:55:27;;;;;;;21.90;9.70;;;;;;;12.40;61.73;99098.46;79771;1298;3011850;-68
2023/11/02 09:57:55;;;;;;;27.30;9.10;;;;;;;12.45;61.79;99093.77;78976;1294;3027026;-69
2023/11/02 10:00:22;;;;;;;20.50;8.50;;;;;;;12.42;61.59;99090.63;79899;1298;3013754;-69
2023/11/02 10:02:49;;;;;;;19.80;9.60;;;;;;;12.44;61.64;99090.50;79931;1293;3013665;-67
2023/11/02 10:05:17;;;;;;;19.10;8.20;;;;;;;12.48;61.48;99094.58;78545;1297;3052566;-70
2023/11/02 10:07:44;;;;;;;17.90;6.30;;;;;;;12.38;60.75;99105.16;79673;1293;3013414;-70
2023/11/02 10:10:12;;;;;;;17.50;7.50;;;;;;;12.19;59.85;99098.81;79787;1297;3012865;-69
2023/11/02 10:12:41;;;;;;;16.30;6.30;;;;;;;12.30;59.51;99099.61;78629;1298;3049122;-68
2023/11/02 10:15:09;;;;;;;15.40;5.80;;;;;;;12.27;59.10;99097.36;79826;1295;3013094;-70
2023/11/02 10:17:37;;;;;;;12.40;5.20;;;;;;;12.16;58.32;99100.48;79974;1297;3011515;-71
2023/11/02 10:20:15;;;;;;;10.90;4.70;;;;;;;12.18;58.26;99100.84;78624;1297;3052249;-71
2023/11/02 10:22:44;;;;;;;11.20;5.80;;;;;;;12.21;58.95;99098.36;78458;1294;3068339;-71
2023/11/02 10:25:14;;;;;;;12.10;5.20;;;;;;;12.17;58.82;99096.14;79731;1295;3013872;-71
2023/11/02 10:27:42;;;;;;;12.90;5.50;;;;;;;12.23;59.27;99094.50;78578;1297;3047500;-69
2023/11/02 10:30:10;;;;;;;13.60;5.30;;;;;;;12.17;59.32;99096.85;79678;1297;3013666;-67
2023/11/02 10:32:37;;;;;;;11.80;5.50;;;;;;;12.22;58.44;99100.91;79551;1308;3011453;-68
2023/11/02 10:35:06;;;;;;;14.70;5.50;;;;;;;12.20;57.95;99103.13;78654;1297;3053872;-68
2023/11/02 10:37:33;;;;;;;12.60;4.90;;;;;;;12.18;56.90;99100.50;79960;1297;3013028;-68
2023/11/02 10:40:00;;;;;;;12.20;5.40;;;;;;;12.25;56.78;99102.27;79816;1294;3011569;-69
2023/11/02 10:42:29;;;;;;;10.60;4.30;;;;;;;12.30;55.45;99105.58;78734;1297;3049056;-70
2023/11/02 10:44:56;;;;;;;12.70;4.70;;;;;;;12.34;55.09;99098.80;79776;1295;3018945;-67
2023/11/02 10:47:30;;;;;;;13.30;5.00;;;;;;;12.40;55.24;99100.81;79967;1297;3012898;-69
2023/11/02 10:49:58;;;;;;;7.80;4.00;;;;;;;12.49;53.49;99099.98;78568;1296;3051547;-71
2023/11/02 10:52:42;;;;;;;6.20;3.60;;;;;;;12.56;52.20;99103.81;79920;1298;3013215;-71
2023/11/02 10:55:18;;;;;;;9.70;3.30;;;;;;;12.80;51.05;99100.59;78498;1294;3055897;-71
2023/11/02 10:57:48;;;;;;;6.90;3.20;;;;;;;12.94;50.07;99106.10;78541;1295;3049060;-70
2023/11/02 11:00:15;;;;;;;9.40;3.90;;;;;;;13.12;49.77;99103.84;79739;1296;3015088;-68
2023/11/02 11:02:42;;;;;;;12.70;4.10;;;;;;;13.18;50.51;99104.61;79661;1298;3011585;-66
2023/11/02 11:05:13;;;;;;;11.50;5.00;;;;;;;13.26;51.78;99094.86;78686;1297;3053017;-74
2023/11/02 11:07:41;;;;;;;11.40;4.70;;;;;;;13.44;50.93;99093.00;80105;1298;3012813;-67
2023/11/02 11:10:13;;;;;;;9.10;4.20;;;;;;;13.66;51.14;99097.77;79286;1296;3011438;-68
2023/11/02 11:12:40;;;;;;;7.50;3.30;;;;;;;13.67;50.60;99100.46;79946;1299;3012117;-70
2023/11/02 11:15:10;;;;;;;5.70;2.90;;;;;;;13.73;50.39;99102.12;79238;1294;3011473;-70
2023/11/02 11:17:41;;;;;;;5.30;2.70;;;;;;;13.88;50.41;99091.21;79904;1297;3014567;-63
2023/11/02 11:20:09;;;;;;;6.90;3.10;;;;;;;13.90;50.00;99093.23;78470;1298;3053029;-66
2023/11/02 11:22:37;;;;;;;8.60;3.90;;;;;;;13.93;49.96;99091.20;79819;1298;3011635;-68
2023/11/02 11:25:06;;;;;;;7.70;4.00;;;;;;;14.02;49.78;99093.27;79259;1295;3013586;-70
2023/11/02 11:27:38;;;;;;;8.40;4.40;;;;;;;14.08;49.69;99085.23;79659;1294;3019072;-69
2023/11/02 11:30:28;;;;;;;10.80;4.70;;;;;;;14.02;49.32;99082.70;78582;1294;3049439;-65